createdAt,value
2019-05-14T00:02:21.470Z,14.04
2019-05-14T00:04:53.109Z,14.06
2019-05-14T00:07:23.542Z,14.05
2019-05-14T00:09:53.857Z,13.94
2019-05-14T00:12:24.386Z,13.88
2019-05-14T00:14:54.743Z,13.80
2019-05-14T00:17:25.040Z,13.70
2019-05-14T00:20:06.385Z,13.54
2019-05-14T00:22:27.491Z,13.52
2019-05-14T00:24:57.824Z,13.53
2019-05-14T00:27:28.181Z,13.28
2019-05-14T00:29:58.585Z,13.26
2019-05-14T00:32:28.876Z,13.16
2019-05-14T00:35:02.078Z,13.25
2019-05-14T00:37:32.474Z,13.16
2019-05-14T00:40:02.903Z,13.06
2019-05-14T00:42:33.282Z,13.04
2019-05-14T00:45:03.626Z,13.11
2019-05-14T00:47:33.934Z,13.07
2019-05-14T00:50:04.630Z,12.97
2019-05-14T00:52:34.983Z,13.05
2019-05-14T00:55:05.641Z,12.96
2019-05-14T00:57:36.899Z,12.88
2019-05-14T01:00:07.440Z,12.94
2019-05-14T01:02:37.902Z,12.98
2019-05-14T01:05:08.874Z,13.16
2019-05-14T01:07:39.175Z,13.35
2019-05-14T01:10:11.615Z,13.17
2019-05-14T01:12:42.089Z,13.10
2019-05-14T01:15:14.204Z,13.12
2019-05-14T01:17:44.700Z,12.94
2019-05-14T01:20:15.269Z,13.07
2019-05-14T01:22:45.657Z,12.99
2019-05-14T01:25:15.999Z,13.23
2019-05-14T01:27:46.308Z,13.31
2019-05-14T01:30:16.724Z,13.16
2019-05-14T01:32:47.043Z,13.08
2019-05-14T01:35:17.503Z,13.20
2019-05-14T01:37:47.834Z,13.14
2019-05-14T01:40:18.165Z,13.20
2019-05-14T01:42:48.561Z,13.27
2019-05-14T01:45:27.019Z,13.21
2019-05-14T01:47:52.057Z,13.13
2019-05-14T01:50:22.549Z,13.30
2019-05-14T01:52:52.888Z,13.47
2019-05-14T01:55:23.171Z,13.26
2019-05-14T01:57:53.594Z,13.28
2019-05-14T02:00:24.240Z,13.23
2019-05-14T02:02:54.600Z,13.21
2019-05-14T02:05:24.983Z,12.96
2019-05-14T02:07:55.282Z,13.20
2019-05-14T02:10:26.521Z,13.27
2019-05-14T02:12:56.847Z,13.46
2019-05-14T02:15:37.102Z,13.43
2019-05-14T02:17:59.220Z,13.46
2019-05-14T02:20:31.923Z,13.58
2019-05-14T02:23:01.805Z,13.36
2019-05-14T02:25:32.267Z,13.33
2019-05-14T02:28:02.614Z,13.50
2019-05-14T02:30:46.904Z,13.52
2019-05-14T02:33:04.956Z,13.52
2019-05-14T02:35:35.306Z,13.39
2019-05-14T02:38:05.672Z,13.49
2019-05-14T02:40:36.023Z,13.43
2019-05-14T02:43:09.436Z,13.33
2019-05-14T02:45:58.717Z,13.38
2019-05-14T02:48:11.586Z,13.51
2019-05-14T02:50:42.017Z,13.41
2019-05-14T02:53:12.367Z,13.45
2019-05-14T02:55:42.657Z,13.49
2019-05-14T02:58:13.446Z,13.67
2019-05-14T03:00:43.754Z,13.45
2019-05-14T03:03:14.082Z,13.60
2019-05-14T03:05:44.985Z,13.67
2019-05-14T03:08:15.810Z,13.41
2019-05-14T03:10:49.807Z,13.09
2019-05-14T03:13:20.305Z,13.31
2019-05-14T03:15:51.396Z,13.44
2019-05-14T03:18:21.732Z,13.23
2019-05-14T03:20:52.479Z,13.21
2019-05-14T03:23:23.441Z,13.45
2019-05-14T03:25:54.108Z,13.25
2019-05-14T03:28:24.621Z,13.09
2019-05-14T03:30:54.964Z,13.22
2019-05-14T03:33:25.732Z,13.33
2019-05-14T03:36:01.340Z,13.51
2019-05-14T03:38:29.645Z,13.11
2019-05-14T03:41:00.850Z,13.24
2019-05-14T03:43:31.556Z,13.27
2019-05-14T03:46:01.990Z,13.20
2019-05-14T03:48:32.501Z,12.89
2019-05-14T03:51:03.292Z,13.04
2019-05-14T03:53:54.417Z,13.27
2019-05-14T03:56:05.780Z,13.19
2019-05-14T03:58:39.326Z,13.15
2019-05-14T04:01:09.775Z,13.25
2019-05-14T04:03:40.217Z,13.43
2019-05-14T04:06:11.451Z,13.36
2019-05-14T04:08:42.715Z,13.22
2019-05-14T04:11:14.507Z,13.36
2019-05-14T04:13:49.455Z,13.25
2019-05-14T04:16:21.824Z,13.31
2019-05-14T04:18:54.805Z,13.27
2019-05-14T04:21:29.529Z,13.57
2019-05-14T04:23:59.730Z,13.36
2019-05-14T04:26:31.333Z,13.36
2019-05-14T04:29:02.014Z,13.26
2019-05-14T04:31:33.531Z,13.35
2019-05-14T04:34:04.667Z,13.57
2019-05-14T04:36:39.091Z,13.20
2019-05-14T04:39:09.437Z,13.32
2019-05-14T04:41:40.606Z,13.20
2019-05-14T04:44:11.301Z,13.10
2019-05-14T04:46:41.596Z,13.06
2019-05-14T04:49:11.961Z,13.28
2019-05-14T04:51:42.580Z,13.08
2019-05-14T04:54:13.885Z,13.06
2019-05-14T04:56:44.263Z,13.01
2019-05-14T04:59:14.920Z,12.82
2019-05-14T05:01:49.012Z,12.90
2019-05-14T05:04:20.323Z,12.86
2019-05-14T05:06:51.280Z,12.82
2019-05-14T05:09:21.714Z,12.84
2019-05-14T05:11:52.585Z,12.93
2019-05-14T05:14:23.899Z,12.82
2019-05-14T05:16:54.508Z,12.95
2019-05-14T05:19:25.199Z,12.91
2019-05-14T05:21:55.521Z,13.15
2019-05-14T05:24:25.861Z,13.18
2019-05-14T05:26:58.534Z,13.31
2019-05-14T05:29:28.808Z,13.35
2019-05-14T05:31:59.595Z,13.40
2019-05-14T05:34:29.910Z,13.53
2019-05-14T05:37:00.257Z,13.49
2019-05-14T05:39:30.939Z,13.41
2019-05-14T05:42:01.450Z,13.57
2019-05-14T05:44:31.784Z,13.89
2019-05-14T05:47:03.738Z,13.69
2019-05-14T05:49:34.095Z,13.87
2019-05-14T05:52:04.420Z,14.06
2019-05-14T05:54:35.153Z,14.03
2019-05-14T05:57:06.242Z,13.87
2019-05-14T05:59:39.054Z,13.93
2019-05-14T06:02:09.516Z,13.93
2019-05-14T06:04:39.958Z,13.95
2019-05-14T06:07:10.585Z,14.10
2019-05-14T06:09:41.077Z,14.07
2019-05-14T06:12:11.423Z,13.89
2019-05-14T06:14:42.040Z,14.08
2019-05-14T06:17:12.867Z,14.07
2019-05-14T06:19:43.170Z,13.91
2019-05-14T06:22:14.071Z,14.02
2019-05-14T06:24:44.482Z,13.92
2019-05-14T06:27:14.835Z,14.16
2019-05-14T06:29:45.338Z,14.21
2019-05-14T06:32:18.453Z,14.05
2019-05-14T06:34:48.911Z,14.19
2019-05-14T06:37:19.923Z,14.11
2019-05-14T06:39:50.320Z,14.07
2019-05-14T06:42:20.750Z,14.14
2019-05-14T06:44:51.407Z,14.23
2019-05-14T06:47:21.701Z,14.09
2019-05-14T06:49:52.056Z,14.26
2019-05-14T06:52:22.423Z,14.40
2019-05-14T06:54:52.761Z,14.49
2019-05-14T06:57:24.171Z,14.46
2019-05-14T06:59:54.789Z,14.64
2019-05-14T07:02:25.363Z,12.98
2019-05-14T07:04:55.673Z,14.86
2019-05-14T07:07:26.313Z,15.05
2019-05-14T07:09:58.229Z,15.15
2019-05-14T07:12:29.467Z,15.47
2019-05-14T07:14:59.828Z,15.72
2019-05-14T07:17:30.272Z,15.63
2019-05-14T07:20:01.065Z,15.63
2019-05-14T07:22:31.354Z,15.78
2019-05-14T07:25:01.673Z,15.95
2019-05-14T07:27:33.481Z,16.17
2019-05-14T07:30:03.915Z,16.20
2019-05-14T07:32:34.223Z,16.01
2019-05-14T07:35:05.314Z,16.22
2019-05-14T07:37:35.723Z,16.29
2019-05-14T07:40:08.513Z,16.32
2019-05-14T07:42:38.991Z,16.48
2019-05-14T07:45:10.648Z,16.56
2019-05-14T07:47:41.033Z,16.66
2019-05-14T07:50:11.806Z,16.79
2019-05-14T07:52:45.818Z,16.75
2019-05-14T07:55:18.354Z,17.15
2019-05-14T07:57:48.692Z,17.31
2019-05-14T08:00:19.632Z,17.50
2019-05-14T08:02:50.394Z,17.50
2019-05-14T08:05:21.296Z,17.61
2019-05-14T08:07:51.632Z,17.35
2019-05-14T08:10:22.310Z,17.51
2019-05-14T08:12:53.041Z,17.76
2019-05-14T08:15:23.513Z,17.70
2019-05-14T08:17:53.907Z,17.95
2019-05-14T08:20:25.025Z,17.99
2019-05-14T08:22:55.317Z,17.86
2019-05-14T08:25:28.133Z,18.08
2019-05-14T08:27:58.678Z,18.29
2019-05-14T08:30:29.245Z,18.29
2019-05-14T08:32:59.585Z,17.50
2019-05-14T08:35:34.049Z,18.53
2019-05-14T08:38:07.622Z,18.53
2019-05-14T08:40:34.765Z,18.18
2019-05-14T08:43:05.420Z,18.56
2019-05-14T08:45:35.729Z,18.65
2019-05-14T08:48:06.464Z,18.65
2019-05-14T08:50:38.732Z,18.74
2019-05-14T08:53:09.187Z,18.74
2019-05-14T08:55:39.878Z,18.85
2019-05-14T08:58:13.733Z,18.93
2019-05-14T09:00:42.576Z,18.96
2019-05-14T09:03:13.274Z,19.00
2019-05-14T09:05:43.938Z,19.29
2019-05-14T09:08:14.331Z,19.36
2019-05-14T09:10:44.814Z,19.27
2019-05-14T09:13:18.186Z,19.43
2019-05-14T09:15:48.889Z,19.45
2019-05-14T09:18:19.543Z,19.78
2019-05-14T09:20:49.887Z,19.64
2019-05-14T09:23:20.619Z,19.64
2019-05-14T09:25:53.283Z,19.27
2019-05-14T09:28:24.528Z,19.39
2019-05-14T09:30:55.004Z,19.50
2019-05-14T09:33:25.679Z,19.85
2019-05-14T09:36:11.038Z,19.71
2019-05-14T09:38:29.480Z,20.24
2019-05-14T09:41:10.530Z,20.28
2019-05-14T09:43:33.413Z,20.26
2019-05-14T09:46:03.709Z,20.47
2019-05-14T09:48:34.587Z,20.19
2019-05-14T09:51:05.003Z,20.29
2019-05-14T09:53:38.156Z,20.44
2019-05-14T09:56:09.087Z,20.13
2019-05-14T09:58:39.743Z,20.46
2019-05-14T10:01:10.618Z,20.51
2019-05-14T10:03:40.974Z,20.33
2019-05-14T10:06:11.300Z,20.15
2019-05-14T10:08:42.085Z,20.19
2019-05-14T10:11:12.627Z,20.03
2019-05-14T10:13:42.899Z,20.45
2019-05-14T10:16:13.584Z,20.21
2019-05-14T10:18:43.990Z,20.31
2019-05-14T10:21:14.353Z,20.69
2019-05-14T10:23:45.612Z,20.40
2019-05-14T10:26:18.353Z,20.28
2019-05-14T10:28:48.740Z,20.12
2019-05-14T10:31:19.202Z,19.81
2019-05-14T10:33:49.637Z,19.79
2019-05-14T10:36:20.356Z,20.17
2019-05-14T10:38:50.973Z,20.31
2019-05-14T10:41:21.293Z,20.32
2019-05-14T10:43:51.847Z,19.92
2019-05-14T10:46:22.502Z,20.19
2019-05-14T10:48:53.069Z,20.20
2019-05-14T10:51:23.400Z,19.95
2019-05-14T10:53:53.748Z,20.24
2019-05-14T10:56:24.424Z,20.42
2019-05-14T10:58:54.985Z,20.17
2019-05-14T11:01:25.332Z,19.99
2019-05-14T11:03:55.919Z,19.77
2019-05-14T11:06:29.098Z,19.80
2019-05-14T11:08:58.643Z,19.49
2019-05-14T11:11:29.197Z,19.44
2019-05-14T11:13:59.882Z,19.58
2019-05-14T11:16:30.185Z,19.49
2019-05-14T11:19:00.560Z,19.82
2019-05-14T11:21:32.011Z,19.89
2019-05-14T11:24:02.337Z,19.81
2019-05-14T11:26:34.389Z,19.95
2019-05-14T11:29:04.865Z,18.61
2019-05-14T11:31:35.295Z,19.95
2019-05-14T11:34:08.208Z,19.91
2019-05-14T11:36:38.849Z,20.00
2019-05-14T11:39:10.479Z,20.08
2019-05-14T11:41:41.108Z,19.30
2019-05-14T11:44:11.436Z,19.71
2019-05-14T11:46:51.363Z,19.28
2019-05-14T11:49:14.037Z,18.89
2019-05-14T11:52:00.946Z,18.98
2019-05-14T11:54:18.762Z,18.96
2019-05-14T11:56:49.948Z,18.83
2019-05-14T11:59:20.238Z,18.91
2019-05-14T12:01:54.767Z,18.45
2019-05-14T12:04:22.838Z,18.44
2019-05-14T12:06:53.336Z,18.61
2019-05-14T12:09:24.008Z,18.57
2019-05-14T12:11:54.530Z,18.53
2019-05-14T12:14:24.852Z,18.79
2019-05-14T12:16:55.733Z,18.12
2019-05-14T12:19:28.184Z,17.74
2019-05-14T12:22:06.607Z,17.83
2019-05-14T12:24:30.450Z,17.67
2019-05-14T12:27:01.135Z,17.94
2019-05-14T12:29:31.603Z,17.78
2019-05-14T12:32:02.071Z,17.90
2019-05-14T12:34:32.670Z,17.90
2019-05-14T12:37:03.082Z,18.07
2019-05-14T12:39:33.387Z,18.07
2019-05-14T12:42:04.201Z,18.15
2019-05-14T12:44:37.385Z,18.22
2019-05-14T12:47:09.227Z,18.22
2019-05-14T12:49:38.953Z,18.34
2019-05-14T12:52:24.312Z,18.42
2019-05-14T12:54:41.563Z,18.08
2019-05-14T12:57:12.316Z,18.64
2019-05-14T12:59:42.983Z,18.64
2019-05-14T13:02:13.563Z,19.29
2019-05-14T13:04:43.852Z,19.31
2019-05-14T13:07:14.310Z,19.14
2019-05-14T13:09:44.817Z,19.41
2019-05-14T13:12:15.353Z,19.31
2019-05-14T13:14:45.639Z,18.98
2019-05-14T13:17:18.557Z,19.14
2019-05-14T13:19:48.985Z,19.40
2019-05-14T13:22:36.386Z,19.28
2019-05-14T13:24:51.781Z,19.25
2019-05-14T13:27:23.565Z,19.22
2019-05-14T13:29:53.951Z,19.18
2019-05-14T13:32:24.529Z,18.96
2019-05-14T13:34:54.816Z,19.01
2019-05-14T13:37:25.501Z,18.72
2019-05-14T13:39:59.015Z,18.72
2019-05-14T13:42:29.581Z,18.69
2019-05-14T13:45:00.525Z,18.38
2019-05-14T13:47:31.033Z,18.38
2019-05-14T13:50:01.424Z,18.41
2019-05-14T13:52:33.087Z,18.00
2019-05-14T13:55:05.222Z,18.06
2019-05-14T13:57:35.650Z,17.83
2019-05-14T14:00:11.780Z,18.12
2019-05-14T14:02:39.206Z,18.46
2019-05-14T14:05:09.748Z,19.07
2019-05-14T14:07:44.508Z,18.52
2019-05-14T14:10:13.550Z,19.13
2019-05-14T14:12:44.086Z,19.13
2019-05-14T14:15:15.673Z,19.28
2019-05-14T14:17:46.097Z,19.28
2019-05-14T14:20:19.339Z,19.06
2019-05-14T14:22:49.260Z,18.51
2019-05-14T14:25:19.580Z,18.51
2019-05-14T14:27:49.903Z,18.67
2019-05-14T14:30:20.709Z,18.30
2019-05-14T14:32:51.346Z,19.09
2019-05-14T14:35:24.138Z,19.09
2019-05-14T14:37:54.149Z,19.43
2019-05-14T14:40:24.868Z,19.89
2019-05-14T14:42:55.193Z,20.30
2019-05-14T14:45:29.016Z,20.28
2019-05-14T14:48:01.221Z,20.75
2019-05-14T14:50:30.408Z,20.19
2019-05-14T14:53:00.902Z,19.81
2019-05-14T14:55:31.747Z,19.05
2019-05-14T14:58:02.089Z,18.83
2019-05-14T15:00:32.393Z,18.33
2019-05-14T15:03:03.132Z,17.78
2019-05-14T15:05:33.642Z,17.55
2019-05-14T15:08:04.025Z,17.41
2019-05-14T15:10:35.162Z,17.25
2019-05-14T15:13:05.573Z,16.92
2019-05-14T15:15:35.962Z,16.86
2019-05-14T15:18:09.500Z,16.88
2019-05-14T15:20:38.822Z,17.19
2019-05-14T15:23:10.038Z,17.19
2019-05-14T15:25:40.451Z,17.54
2019-05-14T15:28:10.829Z,16.87
2019-05-14T15:30:41.536Z,16.87
2019-05-14T15:33:12.137Z,16.98
2019-05-14T15:35:42.458Z,16.68
2019-05-14T15:38:13.252Z,16.47
2019-05-14T15:40:43.855Z,16.50
2019-05-14T15:43:14.252Z,16.25
2019-05-14T15:45:44.527Z,16.10
2019-05-14T15:48:15.177Z,15.56
2019-05-14T15:50:46.106Z,15.73
2019-05-14T15:53:19.275Z,15.63
2019-05-14T15:55:49.089Z,15.40
2019-05-14T15:58:21.264Z,15.36
2019-05-14T16:00:52.482Z,15.28
2019-05-14T16:03:22.805Z,15.09
2019-05-14T16:05:53.435Z,15.14
2019-05-14T16:08:24.101Z,14.92
2019-05-14T16:10:54.395Z,14.89
2019-05-14T16:13:24.855Z,15.00
2019-05-14T16:15:55.142Z,15.08
2019-05-14T16:18:25.588Z,14.93
2019-05-14T16:20:59.084Z,14.93
2019-05-14T16:23:28.317Z,15.07
2019-05-14T16:25:59.154Z,15.12
2019-05-14T16:28:29.865Z,14.86
2019-05-14T16:31:00.161Z,14.93
2019-05-14T16:33:30.691Z,14.72
2019-05-14T16:36:01.436Z,14.86
2019-05-14T16:38:31.816Z,14.83
2019-05-14T16:41:02.132Z,14.87
2019-05-14T16:43:32.860Z,14.83
2019-05-14T16:46:03.229Z,14.79
2019-05-14T16:48:33.570Z,14.90
2019-05-14T16:51:04.289Z,14.87
2019-05-14T16:53:34.818Z,14.78
2019-05-14T16:56:05.130Z,14.77
2019-05-14T16:58:38.342Z,14.89
2019-05-14T17:01:09.614Z,14.81
2019-05-14T17:03:40.396Z,14.86
2019-05-14T17:06:11.058Z,14.74
2019-05-14T17:08:41.827Z,14.99
2019-05-14T17:11:12.301Z,14.95
2019-05-14T17:13:42.683Z,14.97
2019-05-14T17:16:13.067Z,14.95
2019-05-14T17:18:43.528Z,15.05
2019-05-14T17:21:14.123Z,14.83
2019-05-14T17:23:44.587Z,14.94
2019-05-14T17:26:15.448Z,15.02
2019-05-14T17:28:48.626Z,15.07
2019-05-14T17:31:19.194Z,15.18
2019-05-14T17:33:49.865Z,15.12
2019-05-14T17:36:20.578Z,15.13
2019-05-14T17:38:50.865Z,15.23
2019-05-14T17:41:21.201Z,15.06
2019-05-14T17:43:52.018Z,15.05
2019-05-14T17:46:22.298Z,15.10
2019-05-14T17:48:52.634Z,15.13
2019-05-14T17:51:23.245Z,15.02
2019-05-14T17:53:53.941Z,15.17
2019-05-14T17:56:24.616Z,15.09
2019-05-14T17:58:54.967Z,14.97
2019-05-14T18:01:25.397Z,15.04
2019-05-14T18:03:58.260Z,14.96
2019-05-14T18:06:28.612Z,14.87
2019-05-14T18:08:59.107Z,13.13
2019-05-14T18:11:29.590Z,14.73
2019-05-14T18:14:00.133Z,14.78
2019-05-14T18:16:30.457Z,14.91
2019-05-14T18:19:00.925Z,14.74
2019-05-14T18:21:33.391Z,15.04
2019-05-14T18:24:04.339Z,14.92
2019-05-14T18:26:34.676Z,14.83
2019-05-14T18:29:04.985Z,14.70
2019-05-14T18:31:35.897Z,14.92
2019-05-14T18:34:06.202Z,14.68
2019-05-14T18:36:39.292Z,14.64
2019-05-14T18:39:09.447Z,14.81
2019-05-14T18:41:39.887Z,14.85
2019-05-14T18:44:10.220Z,14.70
2019-05-14T18:46:40.723Z,14.87
2019-05-14T18:49:11.470Z,14.79
2019-05-14T18:51:41.755Z,14.74
2019-05-14T18:54:12.523Z,14.77
2019-05-14T18:56:42.813Z,14.82
2019-05-14T18:59:13.615Z,14.79
2019-05-14T19:01:44.112Z,14.88
2019-05-14T19:04:14.409Z,14.93
2019-05-14T19:06:45.188Z,14.84
2019-05-14T19:09:15.736Z,14.75
2019-05-14T19:11:48.060Z,14.77
2019-05-14T19:14:18.718Z,14.81
2019-05-14T19:16:49.560Z,15.06
2019-05-14T19:19:20.709Z,14.98
2019-05-14T19:21:51.342Z,14.89
2019-05-14T19:24:22.210Z,14.86
2019-05-14T19:26:53.562Z,14.96
2019-05-14T19:29:25.410Z,15.05
2019-05-14T19:31:55.694Z,15.01
2019-05-14T19:34:28.559Z,14.95
2019-05-14T19:36:58.819Z,14.78
2019-05-14T19:39:29.198Z,15.02
2019-05-14T19:41:59.568Z,14.57
2019-05-14T19:44:30.013Z,14.40
2019-05-14T19:47:00.325Z,14.32
2019-05-14T19:49:30.660Z,14.33
2019-05-14T19:52:01.381Z,14.33
2019-05-14T19:54:31.715Z,14.36
2019-05-14T19:57:02.037Z,14.50
2019-05-14T19:59:32.802Z,14.34
2019-05-14T20:02:03.299Z,14.52
2019-05-14T20:04:34.074Z,14.54
2019-05-14T20:07:04.367Z,14.64
2019-05-14T20:09:34.701Z,14.25
2019-05-14T20:12:05.358Z,14.03
2019-05-14T20:14:38.087Z,14.13
2019-05-14T20:17:08.936Z,14.04
2019-05-14T20:19:40.840Z,13.94
2019-05-14T20:22:11.396Z,13.72
2019-05-14T20:24:41.916Z,13.66
2019-05-14T20:27:12.610Z,13.51
2019-05-14T20:29:43.342Z,13.67
2019-05-14T20:32:13.774Z,13.42
2019-05-14T20:34:44.139Z,13.43
2019-05-14T20:37:14.431Z,13.07
2019-05-14T20:39:45.079Z,12.44
2019-05-14T20:42:15.534Z,12.05
2019-05-14T20:44:45.933Z,11.63
2019-05-14T20:47:18.876Z,11.34
2019-05-14T20:49:49.033Z,11.44
2019-05-14T20:52:19.524Z,11.25
2019-05-14T20:54:50.238Z,11.04
2019-05-14T20:57:26.807Z,10.94
2019-05-14T20:59:52.932Z,10.95
2019-05-14T21:02:23.312Z,10.81
2019-05-14T21:04:55.530Z,10.77
2019-05-14T21:07:25.990Z,10.74
2019-05-14T21:09:56.328Z,11.00
2019-05-14T21:12:28.899Z,10.69
2019-05-14T21:14:59.316Z,10.18
2019-05-14T21:17:29.625Z,10.13
2019-05-14T21:20:00.111Z,9.76
2019-05-14T21:22:30.665Z,9.76
2019-05-14T21:25:00.976Z,9.76
2019-05-14T21:27:43.856Z,9.96
2019-05-14T21:30:04.462Z,9.36
2019-05-14T21:32:34.751Z,9.41
2019-05-14T21:35:05.592Z,9.72
2019-05-14T21:37:35.939Z,9.73
2019-05-14T21:40:09.159Z,9.48
2019-05-14T21:42:39.316Z,9.59
2019-05-14T21:45:10.139Z,9.65
2019-05-14T21:47:40.546Z,9.50
2019-05-14T21:50:11.767Z,9.18
2019-05-14T21:52:42.579Z,8.97
2019-05-14T21:55:14.243Z,8.95
2019-05-14T21:57:54.211Z,9.03
2019-05-14T22:00:24.831Z,9.14
2019-05-14T22:02:58.455Z,9.01
2019-05-14T22:05:29.280Z,8.77
2019-05-14T22:07:59.609Z,8.81
2019-05-14T22:10:30.346Z,9.05
2019-05-14T22:13:00.794Z,9.11
2019-05-14T22:15:31.190Z,8.99
2019-05-14T22:18:01.611Z,8.85
2019-05-14T22:20:31.893Z,9.04
2019-05-14T22:23:02.370Z,8.92
2019-05-14T22:25:32.997Z,8.90
2019-05-14T22:28:12.307Z,8.85
2019-05-14T22:30:35.374Z,9.01
2019-05-14T22:33:08.512Z,9.01
2019-05-14T22:35:39.541Z,9.04
2019-05-14T22:38:10.056Z,9.28
2019-05-14T22:40:40.741Z,9.16
2019-05-14T22:43:11.154Z,9.27
2019-05-14T22:45:41.546Z,8.98
2019-05-14T22:48:11.914Z,9.10
2019-05-14T22:50:42.287Z,9.05
2019-05-14T22:53:12.862Z,8.95
2019-05-14T22:55:43.280Z,8.89
2019-05-14T22:58:25.179Z,8.83
2019-05-14T23:00:58.037Z,8.80
2019-05-14T23:03:20.829Z,8.91
2019-05-14T23:05:50.387Z,8.99
2019-05-14T23:08:21.005Z,9.04
2019-05-14T23:10:51.663Z,8.96
2019-05-14T23:13:23.030Z,8.95
2019-05-14T23:15:53.306Z,8.91
2019-05-14T23:18:23.665Z,8.91
2019-05-14T23:20:54.368Z,9.05
2019-05-14T23:23:24.883Z,8.89
2019-05-14T23:25:55.165Z,8.69
2019-05-14T23:28:41.054Z,8.82
2019-05-14T23:30:59.198Z,8.91
2019-05-14T23:33:29.533Z,8.82
2019-05-14T23:36:00.364Z,8.65
2019-05-14T23:38:31.011Z,8.54
2019-05-14T23:41:01.610Z,8.70
2019-05-14T23:43:32.174Z,8.75
2019-05-14T23:46:02.452Z,8.81
2019-05-14T23:48:33.078Z,9.01
2019-05-14T23:51:03.661Z,8.81
2019-05-14T23:53:33.940Z,8.91
2019-05-14T23:56:04.664Z,9.22
2019-05-14T23:58:35.332Z,9.27
